sensor_id;sensor_type;location;lat;lon;timestamp;temperature;humidity
15426;DHT22;7812;50.072;7.036;2023-02-28T00:00:12;1.00;99.90
15426;DHT22;7812;50.072;7.036;2023-02-28T00:02:43;1.10;99.90
15426;DHT22;7812;50.072;7.036;2023-02-28T00:05:10;0.90;99.90
15426;DHT22;7812;50.072;7.036;2023-02-28T00:07:36;0.80;99.90
15426;DHT22;7812;50.072;7.036;2023-02-28T00:10:04;0.90;99.90
15426;DHT22;7812;50.072;7.036;2023-02-28T00:12:33;1.00;99.90
15426;DHT22;7812;50.072;7.036;2023-02-28T00:14:59;0.80;99.90
15426;DHT22;7812;50.072;7.036;2023-02-28T00:17:25;0.80;99.90
15426;DHT22;7812;50.072;7.036;2023-02-28T00:19:51;0.70;99.90
15426;DHT22;7812;50.072;7.036;2023-02-28T00:22:20;0.70;99.90
15426;DHT22;7812;50.072;7.036;2023-02-28T00:24:46;0.60;99.90
15426;DHT22;7812;50.072;7.036;2023-02-28T00:27:13;0.60;99.90
15426;DHT22;7812;50.072;7.036;2023-02-28T00:29:39;0.60;99.90
15426;DHT22;7812;50.072;7.036;2023-02-28T00:32:05;0.60;99.90
15426;DHT22;7812;50.072;7.036;2023-02-28T00:34:32;0.50;99.90
15426;DHT22;7812;50.072;7.036;2023-02-28T00:37:07;0.40;99.90
15426;DHT22;7812;50.072;7.036;2023-02-28T00:39:35;0.20;99.90
15426;DHT22;7812;50.072;7.036;2023-02-28T00:42:01;0.30;99.90
15426;DHT22;7812;50.072;7.036;2023-02-28T00:44:28;0.30;99.90
15426;DHT22;7812;50.072;7.036;2023-02-28T00:46:53;0.40;99.90
15426;DHT22;7812;50.072;7.036;2023-02-28T00:49:20;0.30;99.90
15426;DHT22;7812;50.072;7.036;2023-02-28T00:51:46;0.30;99.90
15426;DHT22;7812;50.072;7.036;2023-02-28T00:54:12;0.30;99.90
15426;DHT22;7812;50.072;7.036;2023-02-28T00:56:38;0.20;99.90
15426;DHT22;7812;50.072;7.036;2023-02-28T00:59:03;0.10;99.90
15426;DHT22;7812;50.072;7.036;2023-02-28T01:01:29;0.10;99.90
15426;DHT22;7812;50.072;7.036;2023-02-28T01:03:55;-0.20;99.90
15426;DHT22;7812;50.072;7.036;2023-02-28T01:06:20;-0.20;99.90
15426;DHT22;7812;50.072;7.036;2023-02-28T01:08:46;-0.20;99.90
15426;DHT22;7812;50.072;7.036;2023-02-28T01:11:14;-0.20;99.90
15426;DHT22;7812;50.072;7.036;2023-02-28T01:13:41;-0.30;99.90
15426;DHT22;7812;50.072;7.036;2023-02-28T01:16:06;-0.30;99.90
15426;DHT22;7812;50.072;7.036;2023-02-28T01:18:32;-0.50;99.90
15426;DHT22;7812;50.072;7.036;2023-02-28T01:20:58;-0.50;99.90
15426;DHT22;7812;50.072;7.036;2023-02-28T01:23:28;-0.40;99.90
15426;DHT22;7812;50.072;7.036;2023-02-28T01:25:53;-0.50;99.90
15426;DHT22;7812;50.072;7.036;2023-02-28T01:28:19;-0.50;99.90
15426;DHT22;7812;50.072;7.036;2023-02-28T01:30:50;-0.50;99.90
15426;DHT22;7812;50.072;7.036;2023-02-28T01:33:16;-0.50;99.90
15426;DHT22;7812;50.072;7.036;2023-02-28T01:35:41;-0.70;99.90
15426;DHT22;7812;50.072;7.036;2023-02-28T01:38:07;-0.60;99.90
15426;DHT22;7812;50.072;7.036;2023-02-28T01:40:33;-0.70;99.90
15426;DHT22;7812;50.072;7.036;2023-02-28T01:42:58;-0.70;99.90
15426;DHT22;7812;50.072;7.036;2023-02-28T01:45:31;-0.80;99.90
15426;DHT22;7812;50.072;7.036;2023-02-28T01:48:02;-0.70;99.90
15426;DHT22;7812;50.072;7.036;2023-02-28T01:50:32;-0.80;99.90
15426;DHT22;7812;50.072;7.036;2023-02-28T01:53:01;-0.80;99.90
15426;DHT22;7812;50.072;7.036;2023-02-28T01:55:30;-0.80;99.90
15426;DHT22;7812;50.072;7.036;2023-02-28T01:57:59;-0.80;99.90
15426;DHT22;7812;50.072;7.036;2023-02-28T02:00:27;-1.00;99.90
15426;DHT22;7812;50.072;7.036;2023-02-28T02:02:57;-1.00;99.90
15426;DHT22;7812;50.072;7.036;2023-02-28T02:05:30;-1.10;99.90
15426;DHT22;7812;50.072;7.036;2023-02-28T02:08:05;-1.10;99.90
15426;DHT22;7812;50.072;7.036;2023-02-28T02:15:42;-1.00;99.90
15426;DHT22;7812;50.072;7.036;2023-02-28T02:18:17;-1.10;99.90
15426;DHT22;7812;50.072;7.036;2023-02-28T02:24:38;-0.90;99.90
15426;DHT22;7812;50.072;7.036;2023-02-28T02:27:28;-0.90;99.90
15426;DHT22;7812;50.072;7.036;2023-02-28T02:41:26;-1.20;99.90
15426;DHT22;7812;50.072;7.036;2023-02-28T02:46:44;-1.30;99.90
15426;DHT22;7812;50.072;7.036;2023-02-28T02:49:17;-1.20;99.90
15426;DHT22;7812;50.072;7.036;2023-02-28T02:51:46;-1.20;99.90
15426;DHT22;7812;50.072;7.036;2023-02-28T02:54:37;-1.20;99.90
15426;DHT22;7812;50.072;7.036;2023-02-28T02:57:11;-1.30;99.90
15426;DHT22;7812;50.072;7.036;2023-02-28T02:59:40;-1.40;99.90
15426;DHT22;7812;50.072;7.036;2023-02-28T03:02:08;-1.50;99.90
15426;DHT22;7812;50.072;7.036;2023-02-28T03:04:40;-1.30;99.90
15426;DHT22;7812;50.072;7.036;2023-02-28T03:07:07;-1.30;99.90
15426;DHT22;7812;50.072;7.036;2023-02-28T03:09:33;-1.20;99.90
15426;DHT22;7812;50.072;7.036;2023-02-28T03:12:01;-1.20;99.90
15426;DHT22;7812;50.072;7.036;2023-02-28T03:20:02;-1.40;99.90
15426;DHT22;7812;50.072;7.036;2023-02-28T03:28:16;-1.30;99.90
15426;DHT22;7812;50.072;7.036;2023-02-28T03:30:56;-1.20;99.90
15426;DHT22;7812;50.072;7.036;2023-02-28T03:33:26;-1.10;99.90
15426;DHT22;7812;50.072;7.036;2023-02-28T03:36:04;-1.10;99.90
15426;DHT22;7812;50.072;7.036;2023-02-28T03:38:58;-1.20;99.90
15426;DHT22;7812;50.072;7.036;2023-02-28T03:41:35;-1.30;99.90
15426;DHT22;7812;50.072;7.036;2023-02-28T03:44:13;-1.30;99.90
15426;DHT22;7812;50.072;7.036;2023-02-28T03:47:03;-1.30;99.90
15426;DHT22;7812;50.072;7.036;2023-02-28T03:49:40;-1.40;99.90
15426;DHT22;7812;50.072;7.036;2023-02-28T03:52:09;-1.40;99.90
15426;DHT22;7812;50.072;7.036;2023-02-28T03:54:48;-1.30;99.90
15426;DHT22;7812;50.072;7.036;2023-02-28T04:01:07;-1.20;99.90
15426;DHT22;7812;50.072;7.036;2023-02-28T04:03:13;-1.10;99.90
15426;DHT22;7812;50.072;7.036;2023-02-28T04:05:53;-1.20;99.90
15426;DHT22;7812;50.072;7.036;2023-02-28T04:08:20;-1.20;99.90
15426;DHT22;7812;50.072;7.036;2023-02-28T04:10:53;-1.30;99.90
15426;DHT22;7812;50.072;7.036;2023-02-28T04:13:21;-1.40;99.90
15426;DHT22;7812;50.072;7.036;2023-02-28T04:15:53;-1.30;99.90
15426;DHT22;7812;50.072;7.036;2023-02-28T04:18:18;-1.20;99.90
15426;DHT22;7812;50.072;7.036;2023-02-28T04:20:44;-1.20;99.90
15426;DHT22;7812;50.072;7.036;2023-02-28T04:23:10;-1.20;99.90
15426;DHT22;7812;50.072;7.036;2023-02-28T04:25:35;-1.20;99.90
15426;DHT22;7812;50.072;7.036;2023-02-28T04:28:01;-1.30;99.90
15426;DHT22;7812;50.072;7.036;2023-02-28T04:30:26;-1.30;99.90
15426;DHT22;7812;50.072;7.036;2023-02-28T04:32:52;-1.30;99.90
15426;DHT22;7812;50.072;7.036;2023-02-28T04:35:18;-1.40;99.90
15426;DHT22;7812;50.072;7.036;2023-02-28T04:37:43;-1.40;99.90
15426;DHT22;7812;50.072;7.036;2023-02-28T04:40:09;-1.30;99.90
15426;DHT22;7812;50.072;7.036;2023-02-28T04:42:35;-1.30;99.90
15426;DHT22;7812;50.072;7.036;2023-02-28T04:45:04;-1.20;99.90
15426;DHT22;7812;50.072;7.036;2023-02-28T04:47:30;-1.20;99.90
15426;DHT22;7812;50.072;7.036;2023-02-28T04:49:56;-1.30;99.90
15426;DHT22;7812;50.072;7.036;2023-02-28T04:52:22;-1.40;99.90
15426;DHT22;7812;50.072;7.036;2023-02-28T04:54:47;-1.30;99.90
15426;DHT22;7812;50.072;7.036;2023-02-28T04:57:13;-1.20;99.90
15426;DHT22;7812;50.072;7.036;2023-02-28T04:59:39;-1.20;99.90
15426;DHT22;7812;50.072;7.036;2023-02-28T05:02:05;-1.40;99.90
15426;DHT22;7812;50.072;7.036;2023-02-28T05:04:33;-1.50;99.90
15426;DHT22;7812;50.072;7.036;2023-02-28T05:07:00;-1.50;99.90
15426;DHT22;7812;50.072;7.036;2023-02-28T05:09:26;-1.60;99.90
15426;DHT22;7812;50.072;7.036;2023-02-28T05:11:52;-1.50;99.90
15426;DHT22;7812;50.072;7.036;2023-02-28T05:14:18;-1.50;99.90
15426;DHT22;7812;50.072;7.036;2023-02-28T05:16:43;-1.50;99.90
15426;DHT22;7812;50.072;7.036;2023-02-28T05:19:09;-1.50;99.90
15426;DHT22;7812;50.072;7.036;2023-02-28T05:21:48;-1.50;99.90
15426;DHT22;7812;50.072;7.036;2023-02-28T05:24:14;-1.50;99.90
15426;DHT22;7812;50.072;7.036;2023-02-28T05:26:42;-1.50;99.90
15426;DHT22;7812;50.072;7.036;2023-02-28T05:29:08;-1.50;99.90
15426;DHT22;7812;50.072;7.036;2023-02-28T05:31:35;-1.50;99.90
15426;DHT22;7812;50.072;7.036;2023-02-28T05:34:01;-1.50;99.90
15426;DHT22;7812;50.072;7.036;2023-02-28T05:36:26;-1.50;99.90
15426;DHT22;7812;50.072;7.036;2023-02-28T05:38:52;-1.50;99.90
15426;DHT22;7812;50.072;7.036;2023-02-28T05:41:19;-1.60;99.90
15426;DHT22;7812;50.072;7.036;2023-02-28T05:43:45;-1.70;99.90
15426;DHT22;7812;50.072;7.036;2023-02-28T05:46:12;-1.80;99.90
15426;DHT22;7812;50.072;7.036;2023-02-28T05:48:39;-1.70;99.90
15426;DHT22;7812;50.072;7.036;2023-02-28T05:51:07;-1.70;99.90
15426;DHT22;7812;50.072;7.036;2023-02-28T05:53:33;-1.70;99.90
15426;DHT22;7812;50.072;7.036;2023-02-28T05:55:59;-1.80;99.90
15426;DHT22;7812;50.072;7.036;2023-02-28T05:58:25;-1.70;99.90
15426;DHT22;7812;50.072;7.036;2023-02-28T06:01:00;-1.70;99.90
15426;DHT22;7812;50.072;7.036;2023-02-28T06:03:25;-1.70;99.90
15426;DHT22;7812;50.072;7.036;2023-02-28T06:05:51;-1.70;99.90
15426;DHT22;7812;50.072;7.036;2023-02-28T06:08:17;-1.60;99.90
15426;DHT22;7812;50.072;7.036;2023-02-28T06:10:43;-1.60;99.90
15426;DHT22;7812;50.072;7.036;2023-02-28T06:13:10;-1.70;99.90
15426;DHT22;7812;50.072;7.036;2023-02-28T06:15:38;-1.60;99.90
15426;DHT22;7812;50.072;7.036;2023-02-28T06:18:03;-1.80;99.90
15426;DHT22;7812;50.072;7.036;2023-02-28T06:20:29;-1.80;99.90
15426;DHT22;7812;50.072;7.036;2023-02-28T06:22:56;-1.80;99.90
15426;DHT22;7812;50.072;7.036;2023-02-28T06:25:24;-1.80;99.90
15426;DHT22;7812;50.072;7.036;2023-02-28T06:27:50;-2.00;99.90
15426;DHT22;7812;50.072;7.036;2023-02-28T06:30:16;-1.90;99.90
15426;DHT22;7812;50.072;7.036;2023-02-28T06:32:42;-1.70;99.90
15426;DHT22;7812;50.072;7.036;2023-02-28T06:35:08;-1.60;99.90
15426;DHT22;7812;50.072;7.036;2023-02-28T06:37:34;-1.50;99.90
15426;DHT22;7812;50.072;7.036;2023-02-28T06:40:00;-1.60;99.90
15426;DHT22;7812;50.072;7.036;2023-02-28T06:42:25;-1.60;99.90
15426;DHT22;7812;50.072;7.036;2023-02-28T06:44:54;-1.50;99.90
15426;DHT22;7812;50.072;7.036;2023-02-28T06:47:20;-1.70;99.90
15426;DHT22;7812;50.072;7.036;2023-02-28T06:49:46;-1.70;99.90
15426;DHT22;7812;50.072;7.036;2023-02-28T06:52:12;-1.60;99.90
15426;DHT22;7812;50.072;7.036;2023-02-28T06:54:38;-1.00;99.90
15426;DHT22;7812;50.072;7.036;2023-02-28T06:57:04;-0.10;99.90
15426;DHT22;7812;50.072;7.036;2023-02-28T06:59:30;0.80;99.90
15426;DHT22;7812;50.072;7.036;2023-02-28T07:01:55;1.20;99.90
15426;DHT22;7812;50.072;7.036;2023-02-28T07:04:21;1.70;99.90
15426;DHT22;7812;50.072;7.036;2023-02-28T07:06:47;2.40;99.90
15426;DHT22;7812;50.072;7.036;2023-02-28T07:09:13;3.40;99.90
15426;DHT22;7812;50.072;7.036;2023-02-28T07:11:39;3.70;99.90
15426;DHT22;7812;50.072;7.036;2023-02-28T07:14:06;4.10;99.90
15426;DHT22;7812;50.072;7.036;2023-02-28T07:16:32;4.60;99.90
15426;DHT22;7812;50.072;7.036;2023-02-28T07:18:58;4.50;99.90
15426;DHT22;7812;50.072;7.036;2023-02-28T07:21:24;4.60;99.90
15426;DHT22;7812;50.072;7.036;2023-02-28T07:23:50;4.70;99.90
15426;DHT22;7812;50.072;7.036;2023-02-28T07:26:17;4.90;99.90
15426;DHT22;7812;50.072;7.036;2023-02-28T07:28:45;5.50;99.90
15426;DHT22;7812;50.072;7.036;2023-02-28T07:31:11;5.70;99.90
15426;DHT22;7812;50.072;7.036;2023-02-28T07:33:39;5.30;99.90
15426;DHT22;7812;50.072;7.036;2023-02-28T07:36:08;4.90;99.90
15426;DHT22;7812;50.072;7.036;2023-02-28T07:38:37;5.80;99.90
15426;DHT22;7812;50.072;7.036;2023-02-28T07:41:03;6.30;99.90
15426;DHT22;7812;50.072;7.036;2023-02-28T07:43:33;6.30;99.90
15426;DHT22;7812;50.072;7.036;2023-02-28T07:46:08;6.10;99.90
15426;DHT22;7812;50.072;7.036;2023-02-28T07:48:35;5.60;99.90
15426;DHT22;7812;50.072;7.036;2023-02-28T07:51:00;5.60;99.90
15426;DHT22;7812;50.072;7.036;2023-02-28T07:53:27;6.30;99.90
15426;DHT22;7812;50.072;7.036;2023-02-28T07:56:00;6.80;99.90
15426;DHT22;7812;50.072;7.036;2023-02-28T07:58:27;5.70;99.90
15426;DHT22;7812;50.072;7.036;2023-02-28T08:00:53;6.00;99.90
15426;DHT22;7812;50.072;7.036;2023-02-28T08:03:20;6.80;99.90
15426;DHT22;7812;50.072;7.036;2023-02-28T08:05:46;6.30;99.90
15426;DHT22;7812;50.072;7.036;2023-02-28T08:08:13;6.40;99.90
15426;DHT22;7812;50.072;7.036;2023-02-28T08:10:39;6.30;99.90
15426;DHT22;7812;50.072;7.036;2023-02-28T08:13:05;5.20;99.90
15426;DHT22;7812;50.072;7.036;2023-02-28T08:15:31;3.60;99.90
15426;DHT22;7812;50.072;7.036;2023-02-28T08:17:57;3.40;99.90
15426;DHT22;7812;50.072;7.036;2023-02-28T08:20:24;3.30;99.90
15426;DHT22;7812;50.072;7.036;2023-02-28T08:22:50;4.00;99.90
15426;DHT22;7812;50.072;7.036;2023-02-28T08:25:16;3.00;99.90
15426;DHT22;7812;50.072;7.036;2023-02-28T08:27:42;2.90;99.90
15426;DHT22;7812;50.072;7.036;2023-02-28T08:30:13;3.10;99.90
15426;DHT22;7812;50.072;7.036;2023-02-28T08:32:40;3.00;99.90
15426;DHT22;7812;50.072;7.036;2023-02-28T08:35:06;3.80;99.90
15426;DHT22;7812;50.072;7.036;2023-02-28T08:37:32;4.30;99.90
15426;DHT22;7812;50.072;7.036;2023-02-28T08:39:58;3.60;99.90
15426;DHT22;7812;50.072;7.036;2023-02-28T08:42:24;2.80;99.90
15426;DHT22;7812;50.072;7.036;2023-02-28T08:44:50;2.40;99.90
15426;DHT22;7812;50.072;7.036;2023-02-28T08:47:16;2.30;99.90
15426;DHT22;7812;50.072;7.036;2023-02-28T08:49:42;2.00;99.90
15426;DHT22;7812;50.072;7.036;2023-02-28T08:52:07;2.00;99.90
15426;DHT22;7812;50.072;7.036;2023-02-28T08:54:33;2.10;99.90
15426;DHT22;7812;50.072;7.036;2023-02-28T08:57:00;2.40;99.90
15426;DHT22;7812;50.072;7.036;2023-02-28T08:59:25;2.40;99.90
15426;DHT22;7812;50.072;7.036;2023-02-28T09:01:51;2.60;99.90
15426;DHT22;7812;50.072;7.036;2023-02-28T09:04:17;2.40;99.90
15426;DHT22;7812;50.072;7.036;2023-02-28T09:06:42;2.30;99.90
15426;DHT22;7812;50.072;7.036;2023-02-28T09:09:09;2.40;99.90
15426;DHT22;7812;50.072;7.036;2023-02-28T09:11:35;3.00;99.90
15426;DHT22;7812;50.072;7.036;2023-02-28T09:14:02;3.70;99.90
15426;DHT22;7812;50.072;7.036;2023-02-28T09:16:29;3.50;99.90
15426;DHT22;7812;50.072;7.036;2023-02-28T09:18:56;3.60;99.90
15426;DHT22;7812;50.072;7.036;2023-02-28T09:21:22;3.70;99.90
15426;DHT22;7812;50.072;7.036;2023-02-28T09:23:49;3.30;99.90
15426;DHT22;7812;50.072;7.036;2023-02-28T09:26:23;3.30;99.90
15426;DHT22;7812;50.072;7.036;2023-02-28T09:28:50;3.30;99.90
15426;DHT22;7812;50.072;7.036;2023-02-28T09:31:19;3.70;99.90
15426;DHT22;7812;50.072;7.036;2023-02-28T09:33:49;4.10;99.90
15426;DHT22;7812;50.072;7.036;2023-02-28T09:36:15;4.00;99.90
15426;DHT22;7812;50.072;7.036;2023-02-28T09:38:41;3.80;99.90
15426;DHT22;7812;50.072;7.036;2023-02-28T09:42:00;3.30;99.90
15426;DHT22;7812;50.072;7.036;2023-02-28T09:44:17;2.70;99.90
15426;DHT22;7812;50.072;7.036;2023-02-28T09:46:48;2.70;99.90
15426;DHT22;7812;50.072;7.036;2023-02-28T09:49:25;3.20;99.90
15426;DHT22;7812;50.072;7.036;2023-02-28T09:52:04;3.50;99.90
15426;DHT22;7812;50.072;7.036;2023-02-28T09:54:32;4.20;99.90
15426;DHT22;7812;50.072;7.036;2023-02-28T09:57:17;5.00;99.90
15426;DHT22;7812;50.072;7.036;2023-02-28T10:08:30;5.80;99.90
15426;DHT22;7812;50.072;7.036;2023-02-28T10:11:00;4.50;99.90
15426;DHT22;7812;50.072;7.036;2023-02-28T10:16:12;3.50;99.90
15426;DHT22;7812;50.072;7.036;2023-02-28T10:21:26;3.60;99.90
15426;DHT22;7812;50.072;7.036;2023-02-28T10:24:19;4.10;99.90
15426;DHT22;7812;50.072;7.036;2023-02-28T10:26:43;3.80;99.90
15426;DHT22;7812;50.072;7.036;2023-02-28T10:29:10;3.90;99.90
15426;DHT22;7812;50.072;7.036;2023-02-28T10:31:36;3.50;99.90
15426;DHT22;7812;50.072;7.036;2023-02-28T10:34:03;3.40;99.90
15426;DHT22;7812;50.072;7.036;2023-02-28T10:36:31;3.10;99.90
15426;DHT22;7812;50.072;7.036;2023-02-28T10:38:57;3.10;99.90
15426;DHT22;7812;50.072;7.036;2023-02-28T10:41:32;3.50;99.90
15426;DHT22;7812;50.072;7.036;2023-02-28T10:44:23;3.30;99.90
15426;DHT22;7812;50.072;7.036;2023-02-28T10:46:49;2.90;99.90
15426;DHT22;7812;50.072;7.036;2023-02-28T10:49:23;3.00;99.90
15426;DHT22;7812;50.072;7.036;2023-02-28T10:51:55;3.20;99.90
15426;DHT22;7812;50.072;7.036;2023-02-28T10:54:31;3.50;99.90
15426;DHT22;7812;50.072;7.036;2023-02-28T10:57:18;3.80;99.90
15426;DHT22;7812;50.072;7.036;2023-02-28T10:59:45;3.50;99.90
15426;DHT22;7812;50.072;7.036;2023-02-28T11:02:35;3.20;99.90
15426;DHT22;7812;50.072;7.036;2023-02-28T11:05:02;3.50;99.90
15426;DHT22;7812;50.072;7.036;2023-02-28T11:07:28;3.80;99.90
15426;DHT22;7812;50.072;7.036;2023-02-28T11:09:56;4.00;99.90
15426;DHT22;7812;50.072;7.036;2023-02-28T11:12:31;4.10;99.90
15426;DHT22;7812;50.072;7.036;2023-02-28T11:15:03;4.50;99.90
15426;DHT22;7812;50.072;7.036;2023-02-28T11:17:31;4.40;99.90
15426;DHT22;7812;50.072;7.036;2023-02-28T11:20:04;5.70;99.90
15426;DHT22;7812;50.072;7.036;2023-02-28T11:22:36;5.70;99.90
15426;DHT22;7812;50.072;7.036;2023-02-28T11:25:16;5.00;99.90
15426;DHT22;7812;50.072;7.036;2023-02-28T11:27:53;5.30;99.90
15426;DHT22;7812;50.072;7.036;2023-02-28T11:30:40;6.20;99.90
15426;DHT22;7812;50.072;7.036;2023-02-28T11:35:55;5.40;99.90
15426;DHT22;7812;50.072;7.036;2023-02-28T11:38:24;5.30;99.90
15426;DHT22;7812;50.072;7.036;2023-02-28T11:51:51;8.10;99.90
15426;DHT22;7812;50.072;7.036;2023-02-28T11:54:31;9.10;99.90
15426;DHT22;7812;50.072;7.036;2023-02-28T11:57:18;9.50;97.50
15426;DHT22;7812;50.072;7.036;2023-02-28T12:00:40;7.60;99.30
15426;DHT22;7812;50.072;7.036;2023-02-28T12:27:01;9.50;91.90
15426;DHT22;7812;50.072;7.036;2023-02-28T12:29:28;10.30;90.60
15426;DHT22;7812;50.072;7.036;2023-02-28T12:35:10;8.70;87.30
15426;DHT22;7812;50.072;7.036;2023-02-28T12:40:14;8.70;90.00
15426;DHT22;7812;50.072;7.036;2023-02-28T12:43:05;7.90;90.00
15426;DHT22;7812;50.072;7.036;2023-02-28T12:45:58;8.50;89.50
15426;DHT22;7812;50.072;7.036;2023-02-28T12:48:42;8.30;90.70
15426;DHT22;7812;50.072;7.036;2023-02-28T12:51:09;9.10;92.00
15426;DHT22;7812;50.072;7.036;2023-02-28T12:56:47;6.50;90.50
15426;DHT22;7812;50.072;7.036;2023-02-28T12:59:45;6.60;92.40
15426;DHT22;7812;50.072;7.036;2023-02-28T13:10:46;8.10;91.20
15426;DHT22;7812;50.072;7.036;2023-02-28T13:13:18;8.60;91.00
15426;DHT22;7812;50.072;7.036;2023-02-28T13:16:02;7.80;90.30
15426;DHT22;7812;50.072;7.036;2023-02-28T13:21:07;7.10;92.60
15426;DHT22;7812;50.072;7.036;2023-02-28T13:26:12;7.60;91.10
15426;DHT22;7812;50.072;7.036;2023-02-28T13:28:58;7.00;92.40
15426;DHT22;7812;50.072;7.036;2023-02-28T13:31:24;7.60;91.60
15426;DHT22;7812;50.072;7.036;2023-02-28T13:38:47;8.30;91.40
15426;DHT22;7812;50.072;7.036;2023-02-28T13:46:30;6.50;92.70
15426;DHT22;7812;50.072;7.036;2023-02-28T13:48:55;6.90;92.90
15426;DHT22;7812;50.072;7.036;2023-02-28T13:51:44;6.40;92.60
15426;DHT22;7812;50.072;7.036;2023-02-28T14:07:36;6.50;92.60
15426;DHT22;7812;50.072;7.036;2023-02-28T14:10:07;6.30;92.30
15426;DHT22;7812;50.072;7.036;2023-02-28T14:18:03;6.10;93.10
15426;DHT22;7812;50.072;7.036;2023-02-28T14:20:31;6.30;93.30
15426;DHT22;7812;50.072;7.036;2023-02-28T14:23:24;6.60;96.80
15426;DHT22;7812;50.072;7.036;2023-02-28T14:38:27;5.90;93.60
15426;DHT22;7812;50.072;7.036;2023-02-28T14:40:57;5.50;93.90
15426;DHT22;7812;50.072;7.036;2023-02-28T14:43:28;5.50;93.70
15426;DHT22;7812;50.072;7.036;2023-02-28T14:45:57;5.50;94.60
15426;DHT22;7812;50.072;7.036;2023-02-28T14:48:23;5.40;94.30
15426;DHT22;7812;50.072;7.036;2023-02-28T14:51:17;5.50;95.10
15426;DHT22;7812;50.072;7.036;2023-02-28T14:53:43;5.80;95.00
15426;DHT22;7812;50.072;7.036;2023-02-28T14:56:27;5.70;95.50
15426;DHT22;7812;50.072;7.036;2023-02-28T14:58:57;5.30;95.20
15426;DHT22;7812;50.072;7.036;2023-02-28T15:01:24;5.30;95.90
15426;DHT22;7812;50.072;7.036;2023-02-28T15:03:58;5.60;96.50
15426;DHT22;7812;50.072;7.036;2023-02-28T15:06:24;5.30;95.30
15426;DHT22;7812;50.072;7.036;2023-02-28T15:09:07;5.30;97.40
15426;DHT22;7812;50.072;7.036;2023-02-28T15:11:33;5.30;95.80
15426;DHT22;7812;50.072;7.036;2023-02-28T15:14:00;5.20;94.80
15426;DHT22;7812;50.072;7.036;2023-02-28T15:16:36;5.10;95.50
15426;DHT22;7812;50.072;7.036;2023-02-28T15:21:47;5.20;96.20
15426;DHT22;7812;50.072;7.036;2023-02-28T15:24:41;4.90;96.30
15426;DHT22;7812;50.072;7.036;2023-02-28T15:27:14;4.70;96.70
15426;DHT22;7812;50.072;7.036;2023-02-28T15:29:50;4.70;97.00
15426;DHT22;7812;50.072;7.036;2023-02-28T15:32:37;4.50;97.50
15426;DHT22;7812;50.072;7.036;2023-02-28T15:38:02;4.50;98.00
15426;DHT22;7812;50.072;7.036;2023-02-28T15:43:04;4.40;99.60
15426;DHT22;7812;50.072;7.036;2023-02-28T15:53:44;4.20;99.20
15426;DHT22;7812;50.072;7.036;2023-02-28T15:56:22;4.20;99.70
15426;DHT22;7812;50.072;7.036;2023-02-28T15:58:49;4.10;99.70
15426;DHT22;7812;50.072;7.036;2023-02-28T16:01:30;4.10;99.90
15426;DHT22;7812;50.072;7.036;2023-02-28T16:04:00;4.20;99.90
15426;DHT22;7812;50.072;7.036;2023-02-28T16:06:32;4.10;99.90
15426;DHT22;7812;50.072;7.036;2023-02-28T16:08:58;4.00;99.90
15426;DHT22;7812;50.072;7.036;2023-02-28T16:11:24;4.10;99.90
15426;DHT22;7812;50.072;7.036;2023-02-28T16:13:52;4.20;99.90
15426;DHT22;7812;50.072;7.036;2023-02-28T16:16:21;4.00;99.90
15426;DHT22;7812;50.072;7.036;2023-02-28T16:18:48;3.80;99.90
15426;DHT22;7812;50.072;7.036;2023-02-28T16:21:13;3.80;99.90
15426;DHT22;7812;50.072;7.036;2023-02-28T16:23:39;3.80;99.90
15426;DHT22;7812;50.072;7.036;2023-02-28T16:26:05;3.80;99.90
15426;DHT22;7812;50.072;7.036;2023-02-28T16:28:33;3.70;99.90
15426;DHT22;7812;50.072;7.036;2023-02-28T16:31:01;3.60;99.90
15426;DHT22;7812;50.072;7.036;2023-02-28T16:33:31;3.70;99.90
15426;DHT22;7812;50.072;7.036;2023-02-28T16:35:57;3.60;99.90
15426;DHT22;7812;50.072;7.036;2023-02-28T16:38:22;3.60;99.90
15426;DHT22;7812;50.072;7.036;2023-02-28T16:40:51;3.60;99.90
15426;DHT22;7812;50.072;7.036;2023-02-28T16:43:23;3.60;99.90
15426;DHT22;7812;50.072;7.036;2023-02-28T16:45:55;3.50;99.90
15426;DHT22;7812;50.072;7.036;2023-02-28T16:48:21;3.50;99.90
15426;DHT22;7812;50.072;7.036;2023-02-28T16:50:46;3.50;99.90
15426;DHT22;7812;50.072;7.036;2023-02-28T16:53:12;3.50;99.90
15426;DHT22;7812;50.072;7.036;2023-02-28T16:55:40;3.50;99.90
15426;DHT22;7812;50.072;7.036;2023-02-28T16:58:06;3.30;99.90
15426;DHT22;7812;50.072;7.036;2023-02-28T17:00:33;3.30;99.90
15426;DHT22;7812;50.072;7.036;2023-02-28T17:02:59;3.30;99.90
15426;DHT22;7812;50.072;7.036;2023-02-28T17:05:26;3.30;99.90
15426;DHT22;7812;50.072;7.036;2023-02-28T17:07:53;3.10;99.90
15426;DHT22;7812;50.072;7.036;2023-02-28T17:10:22;3.10;99.90
15426;DHT22;7812;50.072;7.036;2023-02-28T17:12:48;3.10;99.90
15426;DHT22;7812;50.072;7.036;2023-02-28T17:15:17;3.20;99.90
15426;DHT22;7812;50.072;7.036;2023-02-28T17:17:44;3.10;99.90
15426;DHT22;7812;50.072;7.036;2023-02-28T17:20:19;3.10;99.90
15426;DHT22;7812;50.072;7.036;2023-02-28T17:22:48;3.10;99.90
15426;DHT22;7812;50.072;7.036;2023-02-28T17:25:13;3.10;99.90
15426;DHT22;7812;50.072;7.036;2023-02-28T17:27:39;3.00;99.90
15426;DHT22;7812;50.072;7.036;2023-02-28T17:30:26;3.00;99.90
15426;DHT22;7812;50.072;7.036;2023-02-28T17:32:56;2.90;99.90
15426;DHT22;7812;50.072;7.036;2023-02-28T17:35:22;2.80;99.90
15426;DHT22;7812;50.072;7.036;2023-02-28T17:37:48;2.80;99.90
15426;DHT22;7812;50.072;7.036;2023-02-28T17:40:22;2.80;99.90
15426;DHT22;7812;50.072;7.036;2023-02-28T17:42:48;2.80;99.90
15426;DHT22;7812;50.072;7.036;2023-02-28T17:45:15;2.70;99.90
15426;DHT22;7812;50.072;7.036;2023-02-28T17:47:43;2.60;99.90
15426;DHT22;7812;50.072;7.036;2023-02-28T17:50:15;2.50;99.90
15426;DHT22;7812;50.072;7.036;2023-02-28T17:52:41;2.50;99.90
15426;DHT22;7812;50.072;7.036;2023-02-28T17:55:07;2.50;99.90
15426;DHT22;7812;50.072;7.036;2023-02-28T17:57:33;2.50;99.90
15426;DHT22;7812;50.072;7.036;2023-02-28T17:59:59;2.50;99.90
15426;DHT22;7812;50.072;7.036;2023-02-28T18:02:25;2.50;99.90
15426;DHT22;7812;50.072;7.036;2023-02-28T18:04:52;2.50;99.90
15426;DHT22;7812;50.072;7.036;2023-02-28T18:07:19;2.50;99.90
15426;DHT22;7812;50.072;7.036;2023-02-28T18:09:46;2.50;99.90
15426;DHT22;7812;50.072;7.036;2023-02-28T18:12:12;2.50;99.90
15426;DHT22;7812;50.072;7.036;2023-02-28T18:14:37;2.50;99.90
15426;DHT22;7812;50.072;7.036;2023-02-28T18:17:03;2.40;99.90
15426;DHT22;7812;50.072;7.036;2023-02-28T18:19:29;2.30;99.90
15426;DHT22;7812;50.072;7.036;2023-02-28T18:21:55;2.10;99.90
15426;DHT22;7812;50.072;7.036;2023-02-28T18:24:23;2.10;99.90
15426;DHT22;7812;50.072;7.036;2023-02-28T18:26:49;2.10;99.90
15426;DHT22;7812;50.072;7.036;2023-02-28T18:29:21;1.90;99.90
15426;DHT22;7812;50.072;7.036;2023-02-28T18:31:47;2.00;99.90
15426;DHT22;7812;50.072;7.036;2023-02-28T18:34:14;1.90;99.90
15426;DHT22;7812;50.072;7.036;2023-02-28T18:36:40;1.80;99.90
15426;DHT22;7812;50.072;7.036;2023-02-28T18:39:07;1.80;99.90
15426;DHT22;7812;50.072;7.036;2023-02-28T18:41:33;1.80;99.90
15426;DHT22;7812;50.072;7.036;2023-02-28T18:43:59;1.80;99.90
15426;DHT22;7812;50.072;7.036;2023-02-28T18:46:26;1.80;99.90
15426;DHT22;7812;50.072;7.036;2023-02-28T18:48:52;1.60;99.90
15426;DHT22;7812;50.072;7.036;2023-02-28T18:51:20;1.60;99.90
15426;DHT22;7812;50.072;7.036;2023-02-28T18:53:46;1.50;99.90
15426;DHT22;7812;50.072;7.036;2023-02-28T18:56:15;1.40;99.90
15426;DHT22;7812;50.072;7.036;2023-02-28T18:58:42;1.10;99.90
15426;DHT22;7812;50.072;7.036;2023-02-28T19:01:22;1.10;99.90